Terminal Aerodrome Forecast
Issued by NWS

Home | Current Version | Previous Version | Text Only | Print | Product List | Glossary On
Versions: 1 2 3 4 5 6 7 8 9 10 11 12 13 14 15 16 17 18 19 20 21
000
FTUS46 KSEW 211000 AAA
TAFOLM
TAF AMD
KOLM 211002Z 2110/2206 00000KT 2SM BR SCT001
      TEMPO 2110/2114 1/2SM FG BKN001
     FM211600 22006KT P6SM SKC=

USA.gov is the U.S. government's official web portal to all federal, state and local government web resources and services.